Time;durP1;ratioP1;P1;durP2;ratioP2;P2;SDS_P1;SDS_P2;PMS_P1;PMS_P2;Temp;Humidity;BMP_temperature;BMP_pressure;BME280_temperature;BME280_humidity;BME280_pressure;Samples;Min_cycle;Max_cycle;Signal;HPM_P1;HPM_P2
2022/02/24 00:00:33;;;;;;;14.33;4.07;;;3.10;99.90;;;;;;4442097;32;20175;-73
2022/02/24 00:03:01;;;;;;;15.90;4.60;;;3.10;99.90;;;;;;4434504;32;20248;-72
2022/02/24 00:05:29;;;;;;;16.30;4.43;;;3.00;99.90;;;;;;4441778;32;20153;-72
2022/02/24 00:07:56;;;;;;;15.17;4.63;;;3.00;99.90;;;;;;4440393;32;20418;-72
2022/02/24 00:10:23;;;;;;;15.80;4.80;;;2.90;99.90;;;;;;4446318;32;20210;-72
2022/02/24 00:12:50;;;;;;;15.67;4.57;;;2.90;99.90;;;;;;4443342;32;20474;-72
2022/02/24 00:15:16;;;;;;;21.47;5.90;;;2.90;99.90;;;;;;4441690;32;20194;-72
2022/02/24 00:17:43;;;;;;;20.17;5.23;;;2.80;99.90;;;;;;4439713;32;20210;-73
2022/02/24 00:20:12;;;;;;;17.27;5.50;;;2.80;99.90;;;;;;4440732;32;20175;-73
2022/02/24 00:22:40;;;;;;;20.27;5.90;;;2.70;99.90;;;;;;4439114;32;20464;-73
2022/02/24 00:25:08;;;;;;;16.80;5.67;;;2.70;99.90;;;;;;4440545;32;20174;-73
2022/02/24 00:27:35;;;;;;;21.50;6.47;;;2.60;99.90;;;;;;4441396;32;20226;-73
2022/02/24 00:30:03;;;;;;;19.37;6.53;;;2.60;99.90;;;;;;4440793;32;20221;-72
2022/02/24 00:32:30;;;;;;;18.60;6.33;;;2.50;99.90;;;;;;4439789;32;20609;-72
2022/02/24 00:34:57;;;;;;;20.03;6.40;;;2.50;99.90;;;;;;4439426;32;20174;-72
2022/02/24 00:37:24;;;;;;;19.03;6.67;;;2.40;99.90;;;;;;4439604;32;20182;-72
2022/02/24 00:39:51;;;;;;;22.07;6.97;;;2.40;99.90;;;;;;4440940;32;20404;-72
2022/02/24 00:42:18;;;;;;;24.97;7.57;;;2.40;99.90;;;;;;4439216;32;20201;-72
2022/02/24 00:44:45;;;;;;;22.43;7.23;;;2.30;99.90;;;;;;4446044;32;20209;-73
2022/02/24 00:47:12;;;;;;;23.27;6.90;;;2.30;99.90;;;;;;4441945;32;20182;-73
2022/02/24 00:49:39;;;;;;;19.17;6.83;;;2.20;99.90;;;;;;4441057;32;20461;-73
2022/02/24 00:52:07;;;;;;;21.97;6.87;;;2.10;99.90;;;;;;4440194;32;20430;-73
2022/02/24 00:54:34;;;;;;;20.40;6.20;;;2.10;99.90;;;;;;4439673;32;20197;-73
2022/02/24 00:57:01;;;;;;;18.13;6.10;;;2.00;99.90;;;;;;4440204;32;20186;-72
2022/02/24 00:59:28;;;;;;;24.00;6.97;;;2.00;99.90;;;;;;4439782;32;20171;-73
2022/02/24 01:01:55;;;;;;;18.07;6.00;;;2.00;99.90;;;;;;4440665;32;20198;-72
2022/02/24 01:04:22;;;;;;;22.00;7.20;;;1.90;99.90;;;;;;4441030;32;20155;-73
2022/02/24 01:06:50;;;;;;;22.03;7.00;;;1.90;99.90;;;;;;4439112;32;20514;-73
2022/02/24 01:09:17;;;;;;;17.93;6.43;;;1.90;99.90;;;;;;4439349;32;20431;-73
2022/02/24 01:11:44;;;;;;;24.37;7.10;;;1.90;99.90;;;;;;4440407;32;20518;-73
2022/02/24 01:14:11;;;;;;;21.20;7.03;;;1.90;99.90;;;;;;4439948;32;20452;-73
2022/02/24 01:16:38;;;;;;;26.80;7.70;;;1.80;99.90;;;;;;4439043;32;20208;-73
2022/02/24 01:19:05;;;;;;;21.17;7.17;;;1.70;99.90;;;;;;4439600;32;20217;-73
2022/02/24 01:21:34;;;;;;;25.93;7.80;;;1.70;99.90;;;;;;4440744;32;20190;-73
2022/02/24 01:24:01;;;;;;;20.17;8.20;;;1.60;99.90;;;;;;4438680;32;20185;-73
2022/02/24 01:26:28;;;;;;;22.43;7.67;;;1.60;99.90;;;;;;4442836;32;20157;-73
2022/02/24 01:28:55;;;;;;;26.67;7.57;;;1.60;99.90;;;;;;4451005;32;20166;-73
2022/02/24 01:31:23;;;;;;;22.50;7.50;;;1.60;99.90;;;;;;4448994;32;20592;-73
2022/02/24 01:33:50;;;;;;;25.57;8.13;;;1.50;99.90;;;;;;4438805;32;20178;-73
2022/02/24 01:36:17;;;;;;;23.07;7.70;;;1.50;99.90;;;;;;4439311;32;20197;-73
2022/02/24 01:38:44;;;;;;;22.40;7.80;;;1.50;99.90;;;;;;4440898;32;20139;-73
2022/02/24 01:41:10;;;;;;;21.60;7.77;;;1.50;99.90;;;;;;4438890;32;20174;-72
2022/02/24 01:43:41;;;;;;;24.47;8.53;;;1.40;99.90;;;;;;4439048;32;20198;-74
2022/02/24 01:46:09;;;;;;;28.07;8.40;;;1.40;99.90;;;;;;4438353;32;20174;-73
2022/02/24 01:48:36;;;;;;;23.33;8.53;;;1.40;99.90;;;;;;4441472;32;20182;-72
2022/02/24 01:51:02;;;;;;;24.60;8.30;;;1.40;99.90;;;;;;4438446;32;20179;-72
2022/02/24 01:53:29;;;;;;;28.17;9.57;;;1.30;99.90;;;;;;4438274;32;20178;-72
2022/02/24 01:55:56;;;;;;;21.33;8.73;;;1.30;99.90;;;;;;4438300;32;20325;-72
2022/02/24 01:58:23;;;;;;;26.53;8.60;;;1.30;99.90;;;;;;4439299;32;20210;-72
2022/02/24 02:00:51;;;;;;;26.57;8.10;;;1.20;99.90;;;;;;4439872;32;20184;-72
2022/02/24 02:03:18;;;;;;;22.60;8.33;;;1.20;99.90;;;;;;4439914;32;20167;-72
2022/02/24 02:05:47;;;;;;;21.83;8.17;;;1.20;99.90;;;;;;4440656;32;20200;-72
2022/02/24 02:08:14;;;;;;;26.73;7.90;;;1.20;99.90;;;;;;4438758;32;20235;-73
2022/02/24 02:10:41;;;;;;;27.63;8.07;;;1.20;99.90;;;;;;4439236;32;20151;-73
2022/02/24 02:13:08;;;;;;;20.20;8.03;;;1.20;99.90;;;;;;4438318;32;20228;-73
2022/02/24 02:15:36;;;;;;;20.97;8.20;;;1.20;99.90;;;;;;4448347;32;20539;-73
2022/02/24 02:18:03;;;;;;;19.57;7.67;;;1.20;99.90;;;;;;4438267;32;20554;-73
2022/02/24 02:20:30;;;;;;;23.50;7.80;;;1.20;99.90;;;;;;4438324;32;20178;-73
2022/02/24 02:22:57;;;;;;;26.97;7.53;;;1.10;99.90;;;;;;4438713;32;20204;-73
2022/02/24 02:25:24;;;;;;;22.27;7.57;;;1.00;99.90;;;;;;4439073;32;20197;-73
2022/02/24 02:27:52;;;;;;;23.30;7.20;;;1.00;99.90;;;;;;4437976;32;20508;-74
2022/02/24 02:30:20;;;;;;;25.00;8.03;;;1.00;99.90;;;;;;4445684;32;20566;-73
2022/02/24 02:32:48;;;;;;;27.00;7.63;;;0.90;99.90;;;;;;4439574;32;20158;-74
2022/02/24 02:35:15;;;;;;;24.57;7.63;;;0.90;99.90;;;;;;4438228;32;20508;-73
2022/02/24 02:37:42;;;;;;;22.33;7.53;;;0.90;99.90;;;;;;4437784;32;20475;-73
2022/02/24 02:40:10;;;;;;;24.50;7.43;;;0.90;99.90;;;;;;4438486;32;20175;-72
2022/02/24 02:42:37;;;;;;;19.63;7.13;;;0.90;99.90;;;;;;4438594;32;20221;-72
2022/02/24 02:45:06;;;;;;;23.13;7.83;;;0.90;99.90;;;;;;4437964;32;20213;-72
2022/02/24 02:47:33;;;;;;;27.10;7.40;;;0.80;99.90;;;;;;4437828;32;20417;-72
2022/02/24 02:50:01;;;;;;;22.60;7.60;;;0.90;99.90;;;;;;4439052;32;20170;-73
2022/02/24 02:52:28;;;;;;;21.10;7.37;;;0.80;99.90;;;;;;4437494;32;20201;-73
2022/02/24 02:55:00;;;;;;;24.07;7.50;;;0.80;99.90;;;;;;4437862;32;20174;-73
2022/02/24 02:57:27;;;;;;;20.33;7.33;;;0.80;99.90;;;;;;4439156;32;20212;-73
2022/02/24 02:59:54;;;;;;;24.53;6.70;;;0.80;99.90;;;;;;4439669;32;20162;-73
2022/02/24 03:02:21;;;;;;;22.53;7.27;;;0.80;99.90;;;;;;4438283;32;20174;-74
2022/02/24 03:04:50;;;;;;;24.17;7.40;;;0.80;99.90;;;;;;4438111;32;20174;-73
2022/02/24 03:07:18;;;;;;;22.57;7.10;;;0.80;99.90;;;;;;4437784;32;20218;-73
2022/02/24 03:09:49;;;;;;;24.70;7.23;;;0.80;99.90;;;;;;4437497;32;20172;-73
2022/02/24 03:12:16;;;;;;;20.27;7.37;;;0.80;99.90;;;;;;4438115;32;20544;-73
2022/02/24 03:14:45;;;;;;;21.43;7.20;;;0.80;99.90;;;;;;4437525;32;20182;-73
2022/02/24 03:17:13;;;;;;;26.90;7.37;;;0.80;99.90;;;;;;4438339;32;20228;-73
2022/02/24 03:19:40;;;;;;;25.70;7.30;;;0.80;99.90;;;;;;4437808;32;20257;-73
2022/02/24 03:22:12;;;;;;;23.40;7.20;;;0.80;99.90;;;;;;4447259;32;20531;-73
2022/02/24 03:24:39;;;;;;;27.77;6.87;;;0.80;99.90;;;;;;4448844;32;20474;-73
2022/02/24 03:27:06;;;;;;;19.13;6.63;;;0.90;99.90;;;;;;4443924;32;20205;-73
2022/02/24 03:29:33;;;;;;;21.70;7.20;;;0.90;99.90;;;;;;4443049;32;20154;-73
2022/02/24 03:32:01;;;;;;;23.57;7.37;;;1.00;99.90;;;;;;4440763;32;20525;-73
2022/02/24 03:34:30;;;;;;;20.23;7.23;;;1.00;99.90;;;;;;4440808;32;20230;-73
2022/02/24 03:36:57;;;;;;;24.23;7.57;;;1.00;99.90;;;;;;4440140;32;20174;-73
2022/02/24 03:39:24;;;;;;;26.40;7.87;;;0.90;99.90;;;;;;4439822;32;20186;-73
2022/02/24 03:41:51;;;;;;;19.43;6.90;;;0.90;99.90;;;;;;4440143;32;20187;-73
2022/02/24 03:44:18;;;;;;;23.90;7.73;;;0.90;99.90;;;;;;4442004;32;20245;-73
2022/02/24 03:46:46;;;;;;;26.37;7.70;;;0.80;99.90;;;;;;4440362;32;20196;-73
2022/02/24 03:49:13;;;;;;;22.60;7.90;;;0.80;99.90;;;;;;4441335;32;20210;-73
2022/02/24 03:51:40;;;;;;;22.67;7.33;;;0.80;99.90;;;;;;4441647;32;20150;-73
2022/02/24 03:54:07;;;;;;;19.63;7.03;;;0.80;99.90;;;;;;4442277;32;20217;-73
2022/02/24 03:56:34;;;;;;;21.90;7.03;;;0.80;99.90;;;;;;4440433;32;20194;-73
2022/02/24 03:59:01;;;;;;;22.67;7.03;;;0.80;99.90;;;;;;4440433;32;20186;-73
2022/02/24 04:01:28;;;;;;;18.80;7.50;;;0.80;99.90;;;;;;4441533;32;20173;-73
2022/02/24 04:03:56;;;;;;;24.13;8.20;;;0.80;99.90;;;;;;4442689;32;20173;-73
2022/02/24 04:06:23;;;;;;;21.53;7.63;;;0.80;99.90;;;;;;4447382;32;20403;-73
2022/02/24 04:08:50;;;;;;;24.80;8.27;;;0.80;99.90;;;;;;4440116;32;20190;-73
2022/02/24 04:11:16;;;;;;;25.17;7.17;;;0.80;99.90;;;;;;4442335;32;20169;-73
2022/02/24 04:13:43;;;;;;;19.73;7.00;;;0.80;99.90;;;;;;4439945;32;20186;-73
2022/02/24 04:16:10;;;;;;;17.20;6.90;;;0.80;99.90;;;;;;4439949;32;20183;-73
2022/02/24 04:18:37;;;;;;;24.63;7.90;;;0.80;99.90;;;;;;4440153;32;20574;-73
2022/02/24 04:21:07;;;;;;;24.90;7.97;;;0.80;99.90;;;;;;4441496;32;20559;-73
2022/02/24 04:23:34;;;;;;;26.07;7.77;;;0.80;99.90;;;;;;4439861;32;20238;-73
2022/02/24 04:26:01;;;;;;;22.83;7.63;;;0.80;99.90;;;;;;4440179;32;20193;-73
2022/02/24 04:28:28;;;;;;;26.00;7.97;;;0.90;99.90;;;;;;4440246;32;20551;-73
2022/02/24 04:30:55;;;;;;;25.57;8.80;;;0.80;99.90;;;;;;4441310;32;20168;-73
2022/02/24 04:33:22;;;;;;;23.53;8.43;;;0.80;99.90;;;;;;4440668;32;20170;-73
2022/02/24 04:35:49;;;;;;;24.97;7.90;;;0.90;99.90;;;;;;4441075;32;20164;-73
2022/02/24 04:38:16;;;;;;;28.07;8.83;;;0.80;99.90;;;;;;4440926;32;20202;-74
2022/02/24 04:40:43;;;;;;;21.40;8.20;;;0.80;99.90;;;;;;4440164;32;20201;-73
2022/02/24 04:43:12;;;;;;;26.30;9.13;;;0.80;99.90;;;;;;4440446;32;20180;-73
2022/02/24 04:45:39;;;;;;;26.50;8.93;;;0.80;99.90;;;;;;4440938;32;20182;-73
2022/02/24 04:48:07;;;;;;;27.83;8.70;;;0.80;99.90;;;;;;4439716;32;20163;-73
2022/02/24 04:50:34;;;;;;;21.67;8.37;;;0.80;99.90;;;;;;4440507;32;20470;-73
2022/02/24 04:53:01;;;;;;;24.23;9.47;;;0.80;99.90;;;;;;4441064;32;20146;-73
2022/02/24 04:55:28;;;;;;;27.93;9.80;;;0.80;99.90;;;;;;4439981;32;20246;-73
2022/02/24 04:57:55;;;;;;;26.27;8.63;;;0.80;99.90;;;;;;4439790;32;20174;-73
2022/02/24 05:00:22;;;;;;;21.37;8.33;;;0.80;99.90;;;;;;4440429;32;20177;-73
2022/02/24 05:02:49;;;;;;;26.13;8.97;;;0.70;99.90;;;;;;4440715;32;20182;-73
2022/02/24 05:05:19;;;;;;;27.93;8.90;;;0.70;99.90;;;;;;4445933;32;20182;-73
2022/02/24 05:07:46;;;;;;;22.27;8.73;;;0.70;99.90;;;;;;4439206;32;20220;-73
2022/02/24 05:10:13;;;;;;;22.20;8.93;;;0.70;99.90;;;;;;4440399;32;20216;-73
2022/02/24 05:12:40;;;;;;;24.10;9.23;;;0.70;99.90;;;;;;4440019;32;20177;-74
2022/02/24 05:15:07;;;;;;;26.23;9.10;;;0.60;99.90;;;;;;4439644;32;20228;-73
2022/02/24 05:17:34;;;;;;;24.30;8.60;;;0.60;99.90;;;;;;4441423;32;20178;-73
2022/02/24 05:20:03;;;;;;;23.30;8.43;;;0.70;99.90;;;;;;4439193;32;20174;-73
2022/02/24 05:22:30;;;;;;;23.43;8.57;;;0.70;99.90;;;;;;4439168;32;20178;-73
2022/02/24 05:24:57;;;;;;;27.07;8.30;;;0.70;99.90;;;;;;4439073;32;20224;-73
2022/02/24 05:27:25;;;;;;;27.63;8.53;;;0.70;99.90;;;;;;4440129;32;20201;-73
2022/02/24 05:29:52;;;;;;;26.90;9.87;;;0.60;99.90;;;;;;4438921;32;20179;-73
2022/02/24 05:32:19;;;;;;;22.23;8.57;;;0.60;99.90;;;;;;4438434;32;20239;-72
2022/02/24 05:34:46;;;;;;;22.23;8.23;;;0.60;99.90;;;;;;4440113;32;20143;-72
2022/02/24 05:37:13;;;;;;;23.73;8.43;;;0.60;99.90;;;;;;4440271;32;20174;-72
2022/02/24 05:39:43;;;;;;;23.30;8.00;;;0.60;99.90;;;;;;4439717;32;20225;-72
2022/02/24 05:42:10;;;;;;;21.47;7.80;;;0.60;99.90;;;;;;4439542;32;20185;-71
2022/02/24 05:44:36;;;;;;;20.00;7.80;;;0.60;99.90;;;;;;4438601;32;20428;-72
2022/02/24 05:47:04;;;;;;;23.30;7.90;;;0.60;99.90;;;;;;4438728;32;20520;-72
2022/02/24 05:49:31;;;;;;;22.60;8.63;;;0.60;99.90;;;;;;4439424;32;20182;-72
2022/02/24 05:51:58;;;;;;;24.70;8.13;;;0.60;99.90;;;;;;4440021;32;20158;-72
2022/02/24 05:54:24;;;;;;;23.20;7.97;;;0.70;99.90;;;;;;4438752;32;20235;-72
2022/02/24 05:56:51;;;;;;;22.67;8.03;;;0.70;99.90;;;;;;4438589;32;20182;-72
2022/02/24 05:59:18;;;;;;;19.30;7.90;;;0.70;99.90;;;;;;4439457;32;20178;-72
2022/02/24 06:01:47;;;;;;;22.07;8.67;;;0.80;99.90;;;;;;4439267;32;20500;-72
2022/02/24 06:04:14;;;;;;;21.73;8.30;;;0.70;99.90;;;;;;4438581;32;20571;-72
2022/02/24 06:06:41;;;;;;;21.60;8.67;;;0.70;99.90;;;;;;4439246;32;20522;-72
2022/02/24 06:09:08;;;;;;;23.90;9.07;;;0.70;99.90;;;;;;4439860;32;20201;-72
2022/02/24 06:11:35;;;;;;;23.43;9.20;;;0.70;99.90;;;;;;4439004;32;20504;-73
2022/02/24 06:14:02;;;;;;;21.80;9.60;;;0.80;99.90;;;;;;4440885;32;20485;-72
2022/02/24 06:16:29;;;;;;;26.20;9.43;;;0.90;99.90;;;;;;4437971;32;20204;-72
2022/02/24 06:18:56;;;;;;;25.57;9.43;;;0.90;99.90;;;;;;4437510;32;20572;-72
2022/02/24 06:21:23;;;;;;;28.53;9.27;;;1.00;99.90;;;;;;4438922;32;20178;-72
2022/02/24 06:23:52;;;;;;;30.53;10.03;;;1.00;99.90;;;;;;4439547;32;20199;-72
2022/02/24 06:26:19;;;;;;;26.80;9.87;;;1.10;99.90;;;;;;4437577;32;20197;-73
2022/02/24 06:28:46;;;;;;;26.50;9.47;;;1.10;99.90;;;;;;4438780;32;20524;-72
2022/02/24 06:31:13;;;;;;;28.70;9.60;;;1.20;99.90;;;;;;4439721;32;20166;-72
2022/02/24 06:33:40;;;;;;;32.97;10.73;;;1.30;99.90;;;;;;4438934;32;20167;-72
2022/02/24 06:36:12;;;;;;;28.60;10.00;;;1.30;99.90;;;;;;4439328;32;20235;-72
2022/02/24 06:38:39;;;;;;;26.60;10.60;;;1.30;99.90;;;;;;4439446;32;20215;-72
2022/02/24 06:41:06;;;;;;;29.13;10.27;;;1.30;99.90;;;;;;4436921;32;20216;-73
2022/02/24 06:43:33;;;;;;;29.33;10.43;;;1.40;99.90;;;;;;4440456;32;20217;-73
2022/02/24 06:45:59;;;;;;;27.30;10.63;;;1.40;99.90;;;;;;4443993;32;20234;-73
2022/02/24 06:48:28;;;;;;;32.07;10.73;;;1.40;99.90;;;;;;4437253;32;20185;-72
2022/02/24 06:50:55;;;;;;;28.63;10.47;;;1.40;99.90;;;;;;4438295;32;20165;-69
2022/02/24 06:53:22;;;;;;;30.30;10.30;;;1.40;99.90;;;;;;4438668;32;20178;-70
2022/02/24 06:55:49;;;;;;;29.17;10.57;;;1.50;99.90;;;;;;4439025;32;20208;-71
2022/02/24 06:58:16;;;;;;;29.60;11.37;;;1.50;99.90;;;;;;4441905;32;20186;-70
2022/02/24 07:00:42;;;;;;;25.90;10.77;;;1.50;99.90;;;;;;4441716;32;20154;-72
2022/02/24 07:03:10;;;;;;;31.37;11.17;;;1.60;99.90;;;;;;4441255;32;20230;-71
2022/02/24 07:05:37;;;;;;;28.03;11.30;;;1.70;99.90;;;;;;4442216;32;20472;-71
2022/02/24 07:08:04;;;;;;;33.93;11.43;;;1.80;99.90;;;;;;4443366;32;20147;-72
2022/02/24 07:10:31;;;;;;;30.03;11.20;;;1.80;99.90;;;;;;4443314;32;20168;-72
2022/02/24 07:12:58;;;;;;;25.53;10.57;;;1.90;99.90;;;;;;4441867;32;20209;-71
2022/02/24 07:15:26;;;;;;;26.80;9.93;;;2.10;99.90;;;;;;4449903;32;20570;-71
2022/02/24 07:17:53;;;;;;;25.77;9.77;;;2.10;99.90;;;;;;4441130;32;20179;-71
2022/02/24 07:20:20;;;;;;;33.77;10.30;;;2.20;99.90;;;;;;4442063;32;20225;-71
2022/02/24 07:22:47;;;;;;;26.97;10.43;;;2.30;99.90;;;;;;4442230;32;20185;-71
2022/02/24 07:25:14;;;;;;;27.43;10.40;;;2.50;99.90;;;;;;4441837;32;20463;-70
2022/02/24 07:27:42;;;;;;;25.23;9.10;;;2.60;99.90;;;;;;4442143;32;20194;-72
2022/02/24 07:30:11;;;;;;;27.50;9.87;;;2.60;99.90;;;;;;4440245;32;20171;-72
2022/02/24 07:32:38;;;;;;;32.17;9.90;;;2.80;99.90;;;;;;4440875;32;20217;-72
2022/02/24 07:35:05;;;;;;;25.37;9.23;;;2.80;99.90;;;;;;4441009;32;20588;-72
2022/02/24 07:37:32;;;;;;;25.37;9.20;;;2.90;99.90;;;;;;4441627;32;20146;-71
2022/02/24 07:39:59;;;;;;;21.93;9.63;;;3.00;99.90;;;;;;4440053;32;20216;-72
2022/02/24 07:42:28;;;;;;;25.63;9.57;;;3.10;99.90;;;;;;4441011;32;20525;-71
2022/02/24 07:44:55;;;;;;;27.13;8.97;;;3.20;99.90;;;;;;4440462;32;20220;-71
2022/02/24 07:47:23;;;;;;;26.53;9.80;;;3.30;99.90;;;;;;4442445;32;20166;-73
2022/02/24 07:49:50;;;;;;;26.20;9.10;;;3.40;99.90;;;;;;4442493;32;20173;-72
2022/02/24 07:52:17;;;;;;;26.53;8.67;;;3.50;99.90;;;;;;4445956;32;20265;-71
2022/02/24 07:54:44;;;;;;;21.63;8.50;;;3.50;99.90;;;;;;4442635;32;20265;-72
2022/02/24 07:57:11;;;;;;;25.90;8.43;;;3.60;99.90;;;;;;4443157;32;20223;-72
2022/02/24 07:59:39;;;;;;;24.27;7.97;;;3.80;99.90;;;;;;4439893;32;20177;-71
2022/02/24 08:02:05;;;;;;;23.63;8.70;;;3.80;99.90;;;;;;4442720;32;20404;-71
2022/02/24 08:04:32;;;;;;;28.10;8.03;;;3.90;99.90;;;;;;4442487;32;20141;-71
2022/02/24 08:06:59;;;;;;;24.33;8.20;;;4.00;99.90;;;;;;4441504;32;20173;-72
2022/02/24 08:09:26;;;;;;;19.90;7.87;;;4.10;99.90;;;;;;4439755;32;20210;-70
2022/02/24 08:14:38;;;;;;;25.30;7.67;;;4.40;99.90;;;;;;4456606;32;20151;-71
2022/02/24 08:17:06;;;;;;;20.87;6.87;;;4.70;99.90;;;;;;4457467;32;20186;-71
2022/02/24 08:19:34;;;;;;;19.87;7.80;;;5.30;99.90;;;;;;4455505;32;20200;-71
2022/02/24 08:22:02;;;;;;;21.30;7.17;;;5.90;99.90;;;;;;4453056;32;20162;-71
2022/02/24 08:24:32;;;;;;;19.57;6.87;;;6.30;99.90;;;;;;4447506;32;20184;-71
2022/02/24 08:26:59;;;;;;;20.73;6.63;;;6.60;99.90;;;;;;4454235;32;20176;-71
2022/02/24 08:29:25;;;;;;;22.50;6.00;;;6.70;99.90;;;;;;4454816;32;20514;-68
2022/02/24 08:31:52;;;;;;;25.07;5.97;;;6.70;99.90;;;;;;4456706;32;20466;-67
2022/02/24 08:34:19;;;;;;;20.00;6.07;;;7.00;99.90;;;;;;4456170;32;20205;-69
2022/02/24 08:36:46;;;;;;;19.10;5.93;;;7.20;99.90;;;;;;4456552;32;20263;-68
2022/02/24 08:39:13;;;;;;;14.57;5.23;;;7.40;99.90;;;;;;4456396;32;20216;-69
2022/02/24 08:41:43;;;;;;;17.67;5.60;;;7.70;99.90;;;;;;4455048;32;20177;-70
2022/02/24 08:44:10;;;;;;;18.17;5.33;;;8.10;99.90;;;;;;4456777;32;20146;-68
2022/02/24 08:46:43;;;;;;;17.73;6.07;;;8.40;99.90;;;;;;4455714;32;20250;-69
2022/02/24 08:49:11;;;;;;;18.97;5.10;;;8.40;99.90;;;;;;4456351;32;20154;-69
2022/02/24 08:51:38;;;;;;;16.67;5.27;;;8.50;99.90;;;;;;4456495;32;20240;-67
2022/02/24 08:54:05;;;;;;;16.87;5.03;;;8.70;99.90;;;;;;4454806;32;20181;-67
2022/02/24 08:56:32;;;;;;;15.60;5.13;;;8.80;99.90;;;;;;4456233;32;20184;-68
2022/02/24 08:58:59;;;;;;;20.07;5.43;;;8.80;99.90;;;;;;4455674;32;20189;-69
2022/02/24 09:01:25;;;;;;;20.47;5.10;;;9.00;99.90;;;;;;4454349;32;20265;-69
2022/02/24 09:03:53;;;;;;;16.47;5.43;;;9.30;99.90;;;;;;4457413;32;20168;-71
2022/02/24 09:06:20;;;;;;;16.63;5.70;;;9.70;99.90;;;;;;4455831;32;20178;-70
2022/02/24 09:08:47;;;;;;;14.43;4.73;;;10.00;99.90;;;;;;4457158;32;20200;-69
2022/02/24 09:11:14;;;;;;;14.53;4.90;;;10.20;99.90;;;;;;4456751;32;20146;-70
2022/02/24 09:13:42;;;;;;;13.73;4.80;;;10.30;99.90;;;;;;4454133;32;20277;-70
2022/02/24 09:16:09;;;;;;;13.73;4.17;;;10.60;99.90;;;;;;4455207;32;20170;-69
2022/02/24 09:18:37;;;;;;;13.53;4.40;;;10.80;99.90;;;;;;4454151;32;20183;-69
2022/02/24 09:21:04;;;;;;;12.53;4.10;;;10.80;99.90;;;;;;4454428;32;20173;-68
2022/02/24 09:23:31;;;;;;;15.90;4.70;;;10.50;99.90;;;;;;4450492;32;20161;-67
2022/02/24 09:25:59;;;;;;;14.97;4.37;;;10.60;99.90;;;;;;4453945;32;20280;-68
2022/02/24 09:28:25;;;;;;;15.23;3.90;;;10.70;99.90;;;;;;4457460;32;20165;-68
2022/02/24 09:30:53;;;;;;;17.67;4.60;;;10.90;99.90;;;;;;4453411;32;20202;-67
2022/02/24 09:33:20;;;;;;;16.97;4.03;;;11.40;99.90;;;;;;4455199;32;20166;-70
2022/02/24 09:35:47;;;;;;;11.47;3.50;;;11.50;99.90;;;;;;4455734;32;20173;-69
2022/02/24 09:38:17;;;;;;;11.60;3.40;;;11.50;99.90;;;;;;4453859;32;20174;-68
2022/02/24 09:40:51;;;;;;;15.53;3.60;;;11.10;99.90;;;;;;4456802;32;20477;-68
2022/02/24 09:43:28;;;;;;;13.53;3.53;;;11.20;99.90;;;;;;4455226;32;20260;-67
2022/02/24 09:46:00;;;;;;;12.83;3.57;;;11.40;99.90;;;;;;4455321;32;20220;-69
2022/02/24 09:48:33;;;;;;;14.87;3.87;;;11.80;99.30;;;;;;4455085;32;20177;-70
2022/02/24 09:51:02;;;;;;;12.23;3.70;;;11.70;97.40;;;;;;4455384;32;20189;-68
2022/02/24 09:53:30;;;;;;;10.40;3.30;;;12.20;98.40;;;;;;4455076;32;20244;-69
2022/02/24 09:55:59;;;;;;;10.57;3.37;;;12.20;94.50;;;;;;4453643;32;20170;-68
2022/02/24 09:58:26;;;;;;;12.00;3.63;;;12.00;94.80;;;;;;4455055;32;20209;-68
2022/02/24 10:00:54;;;;;;;12.50;3.37;;;11.90;96.30;;;;;;4449430;32;20202;-69
2022/02/24 10:03:36;;;;;;;10.37;3.40;;;11.90;95.10;;;;;;4446136;32;20201;-69
2022/02/24 10:06:05;;;;;;;11.03;3.60;;;11.90;94.80;;;;;;4440050;32;20151;-68
2022/02/24 10:08:40;;;;;;;11.93;3.40;;;12.30;94.90;;;;;;4439680;32;20170;-70
2022/02/24 10:11:22;;;;;;;9.50;3.30;;;12.50;92.70;;;;;;4439841;32;20160;-70
2022/02/24 10:14:10;;;;;;;13.03;3.77;;;13.00;91.30;;;;;;4439248;32;20214;-70
2022/02/24 10:16:59;;;;;;;9.53;3.67;;;13.00;90.40;;;;;;4439633;32;20188;-69
2022/02/24 10:19:28;;;;;;;14.70;3.67;;;13.40;90.40;;;;;;4437683;32;20234;-69
2022/02/24 10:22:05;;;;;;;12.40;4.03;;;13.80;89.90;;;;;;4439488;32;20213;-68
2022/02/24 10:24:32;;;;;;;9.47;3.30;;;14.50;84.50;;;;;;4438686;32;20241;-69
2022/02/24 10:27:15;;;;;;;11.63;3.90;;;14.10;81.50;;;;;;4439512;32;20184;-69
2022/02/24 10:30:03;;;;;;;14.20;3.70;;;13.90;84.70;;;;;;4439492;32;20594;-70
2022/02/24 10:32:57;;;;;;;9.80;3.30;;;14.40;78.90;;;;;;4443950;32;20204;-69
2022/02/24 10:35:28;;;;;;;11.50;3.27;;;13.90;77.20;;;;;;4436859;32;20190;-70
2022/02/24 10:38:01;;;;;;;9.77;3.20;;;14.50;77.80;;;;;;4425638;32;20462;-70
2022/02/24 10:40:59;;;;;;;12.60;3.57;;;14.90;74.20;;;;;;4438404;32;20208;-70
2022/02/24 10:43:36;;;;;;;9.67;2.83;;;14.90;72.60;;;;;;4376324;32;20590;-70
2022/02/24 10:46:17;;;;;;;9.87;3.57;;;15.30;69.30;;;;;;4365714;32;20241;-68
2022/02/24 10:48:57;;;;;;;8.57;3.00;;;15.30;69.70;;;;;;4378869;32;20193;-70
2022/02/24 10:51:31;;;;;;;11.87;3.70;;;15.20;69.40;;;;;;4379928;32;20529;-69
2022/02/24 10:53:59;;;;;;;8.50;2.93;;;15.70;69.00;;;;;;4378257;32;20583;-70
2022/02/24 10:56:26;;;;;;;8.57;3.13;;;16.10;66.40;;;;;;4391567;32;20444;-70
2022/02/24 10:58:53;;;;;;;14.70;4.07;;;16.40;63.50;;;;;;4392562;32;20390;-68
2022/02/24 11:01:24;;;;;;;9.37;3.10;;;15.90;62.20;;;;;;4378023;32;20179;-68
2022/02/24 11:03:55;;;;;;;10.17;3.27;;;15.80;63.80;;;;;;4372132;32;20340;-69
2022/02/24 11:06:24;;;;;;;9.33;3.30;;;15.50;62.50;;;;;;4364135;32;20184;-69
2022/02/24 11:08:53;;;;;;;12.20;3.77;;;15.90;63.80;;;;;;4376176;32;20473;-70
2022/02/24 11:11:22;;;;;;;9.23;3.50;;;16.10;62.30;;;;;;4363850;32;20194;-69
2022/02/24 11:13:50;;;;;;;11.17;3.77;;;16.30;61.90;;;;;;4363574;32;20222;-70
2022/02/24 11:16:19;;;;;;;12.30;3.90;;;16.20;60.30;;;;;;4377088;32;20162;-69
2022/02/24 11:18:47;;;;;;;10.40;3.87;;;16.10;60.70;;;;;;4370037;32;20468;-68
2022/02/24 11:21:16;;;;;;;14.13;3.73;;;16.20;59.90;;;;;;4453373;32;20196;-69
2022/02/24 11:23:48;;;;;;;10.40;3.17;;;16.40;59.80;;;;;;4445802;32;20162;-69
2022/02/24 11:26:21;;;;;;;13.23;3.60;;;16.70;58.20;;;;;;4453013;32;20190;-68
2022/02/24 11:28:58;;;;;;;11.50;3.53;;;16.80;58.40;;;;;;4453091;32;20178;-69
2022/02/24 11:31:51;;;;;;;9.43;3.47;;;16.40;58.10;;;;;;4454956;32;20399;-69
2022/02/24 11:34:57;;;;;;;10.73;3.43;;;16.50;57.80;;;;;;4452348;32;20205;-69
2022/02/24 11:37:28;;;;;;;12.90;3.93;;;16.70;57.60;;;;;;4444127;32;20170;-70
2022/02/24 11:40:36;;;;;;;10.63;3.47;;;17.00;57.60;;;;;;4453245;32;20520;-69
2022/02/24 11:43:08;;;;;;;10.00;3.70;;;16.90;57.10;;;;;;4454330;32;20185;-68
2022/02/24 11:45:48;;;;;;;8.57;3.20;;;17.10;57.50;;;;;;4455194;32;20599;-69
2022/02/24 11:48:20;;;;;;;9.37;3.03;;;17.20;55.20;;;;;;4454998;32;20186;-68
2022/02/24 11:50:58;;;;;;;11.33;3.40;;;17.40;54.40;;;;;;4456408;32;20555;-69
2022/02/24 11:53:27;;;;;;;9.40;3.00;;;17.80;53.90;;;;;;4456101;32;20207;-69
2022/02/24 11:56:02;;;;;;;7.80;2.97;;;18.10;52.80;;;;;;4455490;32;20178;-69
2022/02/24 11:58:46;;;;;;;9.23;3.23;;;19.00;51.50;;;;;;4443536;32;20266;-68
2022/02/24 12:01:25;;;;;;;8.83;3.07;;;19.40;48.80;;;;;;4455300;32;20178;-74
2022/02/24 12:04:14;;;;;;;9.13;3.30;;;19.70;48.40;;;;;;4456660;32;20173;-72
2022/02/24 12:06:47;;;;;;;8.00;3.07;;;19.30;47.00;;;;;;4456700;32;20201;-74
2022/02/24 12:09:14;;;;;;;9.33;3.40;;;18.80;48.40;;;;;;4457540;32;20138;-74
2022/02/24 12:11:42;;;;;;;8.73;2.90;;;19.00;48.10;;;;;;4457054;32;20195;-74
2022/02/24 12:14:22;;;;;;;7.97;2.97;;;18.90;47.70;;;;;;4455227;32;20162;-72
2022/02/24 12:17:01;;;;;;;8.53;3.13;;;19.10;48.90;;;;;;4454842;32;20224;-73
2022/02/24 12:19:39;;;;;;;8.00;2.90;;;20.30;46.70;;;;;;4445494;32;20257;-72
2022/02/24 12:22:35;;;;;;;9.03;3.10;;;20.30;45.80;;;;;;4442926;32;20185;-71
2022/02/24 12:25:19;;;;;;;8.03;2.83;;;19.90;46.10;;;;;;4447107;32;20548;-72
2022/02/24 12:27:59;;;;;;;8.43;2.77;;;20.20;46.20;;;;;;4441031;32;20171;-73
2022/02/24 12:30:30;;;;;;;7.93;2.83;;;20.50;44.00;;;;;;4441223;32;20178;-72
2022/02/24 12:33:05;;;;;;;8.30;2.83;;;20.80;44.10;;;;;;4445799;32;20166;-73
2022/02/24 12:35:35;;;;;;;7.07;2.60;;;20.70;42.30;;;;;;4440442;32;20192;-72
2022/02/24 12:38:03;;;;;;;8.07;2.60;;;20.60;41.70;;;;;;4439670;32;20171;-72
2022/02/24 12:40:38;;;;;;;9.93;2.63;;;20.40;42.50;;;;;;4440881;32;20162;-72
2022/02/24 12:43:08;;;;;;;7.83;2.77;;;20.50;41.60;;;;;;4441085;32;20162;-72
2022/02/24 12:45:38;;;;;;;9.67;2.47;;;20.70;41.90;;;;;;4439964;32;20238;-72
2022/02/24 12:48:09;;;;;;;7.00;2.80;;;21.40;41.10;;;;;;4441169;32;20194;-72
2022/02/24 12:50:45;;;;;;;8.83;2.80;;;20.20;41.80;;;;;;4456388;32;20138;-73
2022/02/24 12:53:17;;;;;;;5.43;2.30;;;20.60;42.70;;;;;;4448856;32;20209;-74
2022/02/24 12:55:45;;;;;;;6.53;2.40;;;20.30;42.90;;;;;;4453983;32;20170;-71
2022/02/24 12:58:15;;;;;;;7.90;2.30;;;20.80;42.20;;;;;;4454917;32;20208;-71